Time;durP1;ratioP1;P1;durP2;ratioP2;P2;SDS_P1;SDS_P2;PMS_P1;PMS_P2;Temp;Humidity;BMP_temperature;BMP_pressure;BME280_temperature;BME280_humidity;BME280_pressure;Samples;Min_cycle;Max_cycle;Signal;HPM_P1;HPM_P2
2022/06/19 00:00:39;;;;;;;8.88;2.25;;;;;;;21.12;47.61;100814.81;4912048;28;124414;-62
2022/06/19 00:03:10;;;;;;;5.50;1.30;;;;;;;21.06;47.65;100803.75;4909597;28;124042;-62
2022/06/19 00:05:38;;;;;;;7.13;1.63;;;;;;;21.00;47.65;100799.75;4909795;28;114160;-61
2022/06/19 00:08:05;;;;;;;5.28;1.40;;;;;;;20.95;47.74;100807.41;4912645;28;114778;-60
2022/06/19 00:10:32;;;;;;;6.55;1.60;;;;;;;20.88;47.69;100796.34;4912126;28;124038;-61
2022/06/19 00:12:59;;;;;;;6.43;1.42;;;;;;;20.83;47.68;100781.59;4911207;28;123818;-61
2022/06/19 00:15:27;;;;;;;8.32;1.90;;;;;;;20.77;47.71;100789.22;4909564;28;115218;-61
2022/06/19 00:17:54;;;;;;;8.07;1.70;;;;;;;20.71;47.78;100789.75;4911452;28;115034;-61
2022/06/19 00:20:22;;;;;;;5.75;1.85;;;;;;;20.65;47.79;100790.31;4909715;28;124029;-61
2022/06/19 00:22:49;;;;;;;7.82;1.60;;;;;;;20.60;47.72;100789.88;4909673;28;124193;-61
2022/06/19 00:25:16;;;;;;;13.32;1.80;;;;;;;20.54;47.95;100790.38;4910883;28;114575;-61
2022/06/19 00:27:44;;;;;;;7.18;1.88;;;;;;;20.49;47.90;100779.16;4908888;28;114377;-60
2022/06/19 00:30:12;;;;;;;7.40;1.85;;;;;;;20.43;48.11;100781.41;4911389;28;124386;-61
2022/06/19 00:32:39;;;;;;;8.77;1.80;;;;;;;20.38;48.03;100778.28;4909069;28;124727;-61
2022/06/19 00:35:07;;;;;;;7.43;1.77;;;;;;;20.34;48.18;100782.22;4910319;28;115103;-62
2022/06/19 00:37:34;;;;;;;8.55;1.90;;;;;;;20.30;48.18;100779.94;4910724;28;114934;-61
2022/06/19 00:40:04;;;;;;;4.50;1.65;;;;;;;20.23;48.34;100774.25;4907384;28;124416;-61
2022/06/19 00:42:32;;;;;;;6.75;1.95;;;;;;;20.18;48.15;100777.31;4909096;28;124337;-60
2022/06/19 00:45:01;;;;;;;9.93;1.92;;;;;;;20.13;48.16;100778.69;4908967;28;114330;-61
2022/06/19 00:47:34;;;;;;;6.10;1.55;;;;;;;20.07;48.20;100779.25;4909211;28;114121;-61
2022/06/19 00:50:20;;;;;;;7.18;1.98;;;;;;;20.00;48.21;100787.84;4910824;28;124550;-61
2022/06/19 00:52:48;;;;;;;6.95;1.63;;;;;;;19.94;48.00;100799.09;4909271;28;124658;-60
2022/06/19 00:55:19;;;;;;;7.55;1.92;;;;;;;19.88;48.14;100813.06;4909525;28;114345;-61
2022/06/19 00:57:57;;;;;;;4.53;1.85;;;;;;;19.84;48.07;100811.63;4910141;28;114422;-61
2022/06/19 01:00:29;;;;;;;7.57;1.65;;;;;;;19.81;48.10;100801.13;4909128;28;124658;-60
2022/06/19 01:03:05;;;;;;;11.82;2.03;;;;;;;19.78;48.21;100806.78;4910592;28;124205;-61
2022/06/19 01:05:35;;;;;;;8.95;2.00;;;;;;;19.77;48.21;100810.44;4910816;28;115125;-61
2022/06/19 01:08:03;;;;;;;7.68;1.90;;;;;;;19.74;48.21;100805.31;4907004;28;114648;-61
2022/06/19 01:10:38;;;;;;;6.13;1.80;;;;;;;19.71;48.12;100810.94;4902293;28;123217;-61
2022/06/19 01:13:06;;;;;;;7.45;1.88;;;;;;;19.70;48.18;100819.97;4908579;28;123936;-61
2022/06/19 01:15:33;;;;;;;8.15;1.85;;;;;;;19.70;48.38;100811.91;4910016;28;113045;-63
2022/06/19 01:18:04;;;;;;;6.18;2.30;;;;;;;19.67;48.18;100793.38;4909775;28;113851;-61
2022/06/19 01:20:33;;;;;;;9.73;1.75;;;;;;;19.64;48.29;100789.91;4911123;28;124910;-61
2022/06/19 01:23:13;;;;;;;9.23;1.60;;;;;;;19.64;48.27;100784.56;4908325;28;123268;-61
2022/06/19 01:25:41;;;;;;;8.05;1.42;;;;;;;19.61;48.30;100774.09;4909776;28;114677;-61
2022/06/19 01:31:05;;;;;;;;;;;;;;;19.56;47.92;100792.41;4910305;28;124134;-64
2022/06/19 01:33:44;;;;;;;6.10;1.70;;;;;;;19.55;48.17;100801.47;4908226;28;124369;-64
2022/06/19 01:36:14;;;;;;;8.00;1.65;;;;;;;19.53;48.17;100899.28;4907184;28;114849;-64
2022/06/19 01:38:46;;;;;;;9.15;2.25;;;;;;;19.50;48.38;100966.72;4900220;28;114238;-64
2022/06/19 01:41:18;;;;;;;8.75;1.70;;;;;;;19.47;48.39;100932.88;4899880;28;123104;-64
2022/06/19 01:43:47;;;;;;;8.80;1.52;;;;;;;19.45;48.57;100838.97;4896118;28;123883;-64
2022/06/19 01:46:16;;;;;;;8.77;1.92;;;;;;;19.46;48.34;100842.53;4907332;28;114963;-66
2022/06/19 01:48:44;;;;;;;6.10;1.52;;;;;;;19.46;48.47;100904.31;4903897;28;114274;-63
2022/06/19 01:51:11;;;;;;;7.18;1.58;;;;;;;19.47;48.56;100915.91;4903696;28;124184;-63
2022/06/19 01:53:41;;;;;;;9.25;1.55;;;;;;;19.48;48.54;100864.75;4901301;28;123975;-64
2022/06/19 01:56:10;;;;;;;5.70;1.38;;;;;;;19.49;48.21;100850.31;4903514;28;115419;-64
2022/06/19 01:58:46;;;;;;;8.63;1.90;;;;;;;19.47;48.30;100846.91;4902942;28;114980;-65
2022/06/19 02:01:13;;;;;;;6.50;1.55;;;;;;;19.46;48.08;100861.34;4903757;28;124168;-65
2022/06/19 02:03:49;;;;;;;5.15;1.38;;;;;;;19.45;48.06;100854.25;4902580;28;123715;-65
2022/06/19 02:06:23;;;;;;;4.72;1.35;;;;;;;19.42;48.00;100881.34;4905387;28;114355;-66
2022/06/19 02:08:51;;;;;;;7.13;1.38;;;;;;;19.40;47.71;100883.31;4900872;28;113733;-66
2022/06/19 02:11:20;;;;;;;6.40;1.45;;;;;;;19.35;47.81;100869.41;4901218;28;124131;-65
2022/06/19 02:13:49;;;;;;;10.70;1.67;;;;;;;19.30;47.46;100872.47;4905700;28;123995;-62
2022/06/19 02:16:19;;;;;;;9.10;1.70;;;;;;;19.24;47.34;100881.88;4906005;28;115057;-62
2022/06/19 02:18:49;;;;;;;6.45;1.63;;;;;;;19.20;47.35;100893.84;4902072;28;114225;-62
2022/06/19 02:21:20;;;;;;;10.60;1.48;;;;;;;19.17;47.15;100888.72;4905348;28;125111;-62
2022/06/19 02:23:49;;;;;;;8.80;1.75;;;;;;;19.14;46.99;100893.50;4910107;28;123776;-62
2022/06/19 02:26:17;;;;;;;6.75;1.30;;;;;;;19.11;46.69;100896.41;4908356;28;114200;-61
2022/06/19 02:28:49;;;;;;;7.57;1.52;;;;;;;19.08;46.56;100892.16;4901495;28;114528;-62
2022/06/19 02:31:18;;;;;;;6.03;1.48;;;;;;;19.05;46.07;100889.72;4902969;28;123943;-62
2022/06/19 02:33:50;;;;;;;5.78;1.27;;;;;;;19.03;45.96;100897.03;4919249;28;122698;-61
2022/06/19 02:36:31;;;;;;;9.38;1.58;;;;;;;18.99;45.88;100896.44;4908583;28;114124;-61
2022/06/19 02:39:06;;;;;;;7.07;1.40;;;;;;;18.98;45.56;100883.97;4927807;28;112868;-61
2022/06/19 02:41:45;;;;;;;6.78;1.30;;;;;;;18.96;45.31;100890.44;4908234;28;124252;-61
2022/06/19 02:44:12;;;;;;;5.43;1.20;;;;;;;18.94;45.32;100920.09;4899007;28;123859;-61
2022/06/19 02:46:39;;;;;;;6.10;1.35;;;;;;;18.91;44.97;100898.88;4908413;28;114334;-61
2022/06/19 02:49:06;;;;;;;6.43;1.63;;;;;;;18.89;44.83;100890.06;4903456;28;115214;-61
2022/06/19 02:51:33;;;;;;;3.95;1.38;;;;;;;18.87;44.60;100897.38;4912132;28;123003;-61
2022/06/19 02:54:00;;;;;;;5.80;1.83;;;;;;;18.85;44.61;100916.31;4902496;28;124747;-62
2022/06/19 02:56:28;;;;;;;7.40;1.63;;;;;;;18.83;44.34;100928.97;4912756;28;114751;-62
2022/06/19 02:58:55;;;;;;;5.00;1.35;;;;;;;18.80;44.23;100918.50;4902209;28;114260;-61
2022/06/19 03:01:22;;;;;;;5.50;1.33;;;;;;;18.76;44.01;100903.59;4903820;28;124370;-61
2022/06/19 03:03:49;;;;;;;7.75;1.02;;;;;;;18.75;43.62;100909.91;4909254;28;124211;-63
2022/06/19 03:06:16;;;;;;;6.35;1.38;;;;;;;18.72;43.33;100899.41;4906697;28;114199;-64
2022/06/19 03:08:43;;;;;;;5.07;1.13;;;;;;;18.69;43.35;100883.56;4905310;28;113975;-65
2022/06/19 03:11:10;;;;;;;6.32;1.60;;;;;;;18.67;43.40;100885.53;4894096;28;124055;-64
2022/06/19 03:13:38;;;;;;;6.22;1.40;;;;;;;18.66;43.31;100899.91;4901497;28;123700;-63
2022/06/19 03:16:07;;;;;;;7.22;1.45;;;;;;;18.65;43.25;100906.25;4901441;28;114109;-65
2022/06/19 03:18:36;;;;;;;5.22;1.42;;;;;;;18.63;43.18;100937.72;4903774;28;113689;-63
2022/06/19 03:21:05;;;;;;;8.85;1.40;;;;;;;18.61;43.32;101014.75;4901106;28;124096;-64
2022/06/19 03:23:32;;;;;;;6.57;1.50;;;;;;;18.57;43.38;101041.00;4899004;28;123748;-63
2022/06/19 03:25:59;;;;;;;12.05;1.80;;;;;;;18.55;43.65;101004.50;4901513;28;113449;-64
2022/06/19 03:28:28;;;;;;;7.82;1.88;;;;;;;18.52;43.71;100961.84;4900625;28;114775;-63
2022/06/19 03:30:55;;;;;;;7.93;1.20;;;;;;;18.51;43.88;100962.78;4905667;28;124052;-64
2022/06/19 03:33:23;;;;;;;10.48;1.50;;;;;;;18.51;43.88;100949.38;4904546;28;124641;-64
2022/06/19 03:35:52;;;;;;;7.32;1.35;;;;;;;18.51;43.90;100944.88;4905993;28;115300;-62
2022/06/19 03:38:21;;;;;;;8.15;1.00;;;;;;;18.51;44.21;100944.03;4908329;28;115281;-62
2022/06/19 03:40:49;;;;;;;7.95;1.40;;;;;;;18.48;44.21;100940.59;4901230;28;123819;-62
2022/06/19 03:43:16;;;;;;;6.30;1.23;;;;;;;18.47;44.40;100933.50;4905281;28;123621;-62
2022/06/19 03:45:43;;;;;;;7.28;1.98;;;;;;;18.46;44.42;100931.81;4901317;28;114501;-62
2022/06/19 03:48:12;;;;;;;11.32;1.83;;;;;;;18.45;44.73;100924.75;4906698;28;113433;-62
2022/06/19 03:50:41;;;;;;;6.15;1.20;;;;;;;18.45;44.69;100940.81;4898182;28;124120;-62
2022/06/19 03:53:09;;;;;;;6.63;1.27;;;;;;;18.45;44.92;100935.47;4902081;28;124667;-62
2022/06/19 03:55:36;;;;;;;5.70;1.50;;;;;;;18.44;44.75;100933.78;4902841;28;114342;-62
2022/06/19 03:58:03;;;;;;;4.28;1.08;;;;;;;18.44;44.77;100912.31;4904733;28;114293;-61
2022/06/19 04:00:30;;;;;;;5.93;1.20;;;;;;;18.43;44.61;100897.19;4907186;28;124210;-62
2022/06/19 04:02:58;;;;;;;7.50;1.40;;;;;;;18.41;44.51;100869.63;4902019;28;124562;-62
2022/06/19 04:05:25;;;;;;;5.35;1.27;;;;;;;18.40;44.54;100873.31;4909791;28;113499;-62
2022/06/19 04:07:55;;;;;;;5.00;1.27;;;;;;;18.41;44.59;100885.72;4905303;28;114301;-63
2022/06/19 04:10:22;;;;;;;10.77;1.63;;;;;;;18.42;44.43;100898.19;4899975;28;124520;-61
2022/06/19 04:12:53;;;;;;;13.38;1.50;;;;;;;18.43;44.19;100926.69;4898165;28;123888;-62
2022/06/19 04:15:20;;;;;;;3.17;1.08;;;;;;;18.43;44.16;100987.53;4910765;28;114290;-61
2022/06/19 04:17:48;;;;;;;10.07;1.38;;;;;;;18.43;44.19;100979.47;4905498;28;113828;-61
2022/06/19 04:20:15;;;;;;;6.03;1.20;;;;;;;18.42;43.99;100935.72;4904093;28;123941;-61
2022/06/19 04:22:42;;;;;;;4.72;1.10;;;;;;;18.43;43.85;100924.00;4906260;28;124513;-61
2022/06/19 04:25:13;;;;;;;5.93;0.98;;;;;;;18.44;43.97;100924.84;4905068;28;115507;-61
2022/06/19 04:27:42;;;;;;;6.18;1.08;;;;;;;18.47;43.88;100893.28;4901305;28;114854;-61
2022/06/19 04:30:11;;;;;;;4.95;1.02;;;;;;;18.51;43.89;100863.56;4908028;28;124883;-61
2022/06/19 04:32:38;;;;;;;6.95;1.42;;;;;;;18.53;43.78;100856.25;4903454;28;124260;-61
2022/06/19 04:35:06;;;;;;;2.70;0.90;;;;;;;18.53;43.74;100829.41;4901004;28;114417;-61
2022/06/19 04:37:33;;;;;;;4.03;1.20;;;;;;;18.54;43.67;100793.59;4901037;28;113895;-61
2022/06/19 04:40:00;;;;;;;6.97;1.00;;;;;;;18.54;43.59;100785.53;4905879;28;124207;-62
2022/06/19 04:42:28;;;;;;;5.75;1.30;;;;;;;18.53;43.65;100775.78;4904457;28;123090;-64
2022/06/19 04:44:56;;;;;;;6.22;0.98;;;;;;;18.55;43.91;100779.19;4917457;28;114240;-64
2022/06/19 04:47:23;;;;;;;6.35;1.48;;;;;;;18.58;43.70;100765.53;4906796;28;113797;-63
2022/06/19 04:49:51;;;;;;;5.15;1.33;;;;;;;18.61;43.99;100751.88;4903059;28;123843;-63
2022/06/19 04:52:18;;;;;;;6.85;1.10;;;;;;;18.64;44.00;100741.75;4898106;28;123865;-64
2022/06/19 04:54:46;;;;;;;6.13;1.20;;;;;;;18.68;44.08;100755.75;4905219;28;114253;-64
2022/06/19 04:57:13;;;;;;;6.63;1.10;;;;;;;18.72;44.03;100759.91;4905003;28;114361;-64
2022/06/19 04:59:41;;;;;;;9.77;1.20;;;;;;;18.77;44.03;100757.69;4899090;28;124043;-65
2022/06/19 05:02:11;;;;;;;8.85;1.60;;;;;;;18.83;44.09;100757.22;4905116;28;124481;-65
2022/06/19 05:04:39;;;;;;;7.93;1.30;;;;;;;18.89;44.34;100755.03;4907838;28;114574;-64
2022/06/19 05:07:07;;;;;;;5.85;1.10;;;;;;;18.95;44.36;100743.78;4895399;28;113944;-64
2022/06/19 05:09:34;;;;;;;6.60;1.30;;;;;;;18.96;44.14;100734.78;4898409;28;123815;-64
2022/06/19 05:12:01;;;;;;;4.68;1.05;;;;;;;18.97;43.96;100710.50;4899057;28;123885;-61
2022/06/19 05:14:28;;;;;;;7.95;1.25;;;;;;;18.95;43.99;100706.22;4903680;28;115172;-62
2022/06/19 05:16:55;;;;;;;6.90;1.10;;;;;;;18.92;43.88;100699.28;4902822;28;114866;-61
2022/06/19 05:19:22;;;;;;;6.55;1.20;;;;;;;18.92;43.85;100706.50;4903883;28;124830;-63
2022/06/19 05:21:50;;;;;;;13.20;1.83;;;;;;;18.93;44.08;100718.91;4909300;28;124179;-61
2022/06/19 05:24:17;;;;;;;8.65;1.13;;;;;;;18.94;44.04;100737.56;4906250;28;114319;-61
2022/06/19 05:26:50;;;;;;;7.03;1.42;;;;;;;18.98;44.19;100746.22;4906873;28;113872;-61
2022/06/19 05:29:17;;;;;;;5.15;1.20;;;;;;;19.02;44.15;100739.63;4906205;28;122878;-62
2022/06/19 05:31:44;;;;;;;7.78;1.45;;;;;;;19.07;44.15;100740.09;4911281;28;124352;-62
2022/06/19 05:34:12;;;;;;;8.02;1.10;;;;;;;19.11;44.11;100741.56;4915433;28;113277;-62
2022/06/19 05:36:43;;;;;;;5.93;1.00;;;;;;;19.18;43.89;100750.81;4909512;28;114496;-62
2022/06/19 05:39:11;;;;;;;6.20;1.00;;;;;;;19.22;43.86;100763.00;4908423;28;124000;-62
2022/06/19 05:41:39;;;;;;;5.10;0.98;;;;;;;19.28;43.42;100793.00;4906787;28;123707;-62
2022/06/19 05:44:09;;;;;;;4.50;1.08;;;;;;;19.30;43.18;100791.91;4908318;28;114497;-62
2022/06/19 05:46:37;;;;;;;4.40;1.02;;;;;;;19.34;43.17;100776.38;4904471;28;113703;-61
2022/06/19 05:49:04;;;;;;;5.18;0.93;;;;;;;19.43;43.18;100789.06;4904050;28;124077;-62
2022/06/19 05:51:31;;;;;;;5.38;1.20;;;;;;;19.53;43.49;100803.41;4900333;28;123730;-65
2022/06/19 05:53:58;;;;;;;3.80;1.10;;;;;;;19.68;43.20;100812.03;4903808;28;114786;-67
2022/06/19 05:56:27;;;;;;;6.03;1.10;;;;;;;19.79;42.80;100829.97;4904338;28;114107;-65
2022/06/19 05:58:55;;;;;;;8.48;1.20;;;;;;;19.88;42.68;100877.56;4902881;28;124158;-65
2022/06/19 06:01:23;;;;;;;4.20;1.25;;;;;;;20.01;42.92;100905.13;4908026;28;123549;-64
2022/06/19 06:03:51;;;;;;;6.60;1.25;;;;;;;20.14;42.99;100910.34;4908342;28;116036;-65
2022/06/19 06:06:25;;;;;;;7.68;1.20;;;;;;;20.28;42.97;100906.47;4905212;28;113918;-65
2022/06/19 06:08:53;;;;;;;6.97;1.20;;;;;;;20.40;42.71;100905.44;4903228;28;124497;-64
2022/06/19 06:11:21;;;;;;;6.10;1.20;;;;;;;20.54;42.59;100916.84;4897308;28;124601;-65
2022/06/19 06:13:49;;;;;;;5.75;1.15;;;;;;;20.68;42.67;100919.25;4909972;28;114085;-65
2022/06/19 06:16:19;;;;;;;6.70;1.27;;;;;;;20.80;42.23;100923.53;4901127;28;113700;-64
2022/06/19 06:18:46;;;;;;;4.13;1.15;;;;;;;20.90;42.07;100925.44;4904699;28;123086;-64
2022/06/19 06:21:18;;;;;;;4.88;1.00;;;;;;;20.97;41.82;100945.47;4912709;28;124724;-64
2022/06/19 06:23:46;;;;;;;9.45;1.20;;;;;;;21.01;42.07;100957.66;4909879;28;114409;-65
2022/06/19 06:26:33;;;;;;;7.07;1.27;;;;;;;21.01;41.91;100965.75;4909228;28;114348;-64
2022/06/19 06:29:01;;;;;;;7.18;1.30;;;;;;;20.97;41.70;100967.00;4913123;28;124284;-64
2022/06/19 06:31:28;;;;;;;6.50;1.17;;;;;;;20.94;41.63;100988.78;4912577;28;124644;-64
2022/06/19 06:33:57;;;;;;;6.95;1.25;;;;;;;20.89;41.52;100991.03;4912442;28;114512;-64
2022/06/19 06:36:26;;;;;;;6.20;1.38;;;;;;;20.85;41.71;100997.66;4901590;28;114007;-61
2022/06/19 06:38:53;;;;;;;6.72;1.42;;;;;;;20.83;41.99;100997.78;4905328;28;124017;-61
2022/06/19 06:41:20;;;;;;;8.25;1.33;;;;;;;20.86;41.91;101002.06;4911387;28;123679;-64
2022/06/19 06:43:48;;;;;;;4.90;1.05;;;;;;;20.90;41.84;101025.06;4912485;28;114327;-64
2022/06/19 06:46:19;;;;;;;6.57;1.05;;;;;;;20.88;41.81;101040.50;4909247;28;114112;-64
2022/06/19 06:48:48;;;;;;;8.80;1.10;;;;;;;20.82;41.82;101097.56;4903517;28;124143;-64
2022/06/19 06:51:19;;;;;;;5.72;1.40;;;;;;;20.77;41.99;101139.16;4910564;28;124073;-64
2022/06/19 06:53:46;;;;;;;6.15;1.10;;;;;;;20.73;42.29;101143.09;4901944;28;115707;-65
2022/06/19 06:56:14;;;;;;;5.45;1.05;;;;;;;20.67;42.53;101165.13;4905555;28;114840;-65
2022/06/19 06:58:42;;;;;;;6.68;1.08;;;;;;;20.60;42.79;101142.41;4912055;28;122996;-64
2022/06/19 07:01:15;;;;;;;8.75;1.30;;;;;;;20.50;43.37;101166.50;4913339;28;123519;-62
2022/06/19 07:03:44;;;;;;;10.40;1.35;;;;;;;20.45;43.99;101170.53;4911400;28;114192;-64
2022/06/19 07:06:11;;;;;;;6.25;1.20;;;;;;;20.40;44.09;101174.47;4903718;28;114060;-64
2022/06/19 07:08:39;;;;;;;6.97;1.60;;;;;;;20.37;44.51;101185.47;4910302;28;124431;-64
2022/06/19 07:11:06;;;;;;;3.90;1.02;;;;;;;20.34;44.98;101174.97;4911911;28;123914;-64
2022/06/19 07:13:33;;;;;;;5.97;1.08;;;;;;;20.33;44.88;101149.03;4905901;28;114367;-64
2022/06/19 07:16:00;;;;;;;6.18;1.10;;;;;;;20.32;45.21;101133.88;4905758;28;113971;-65
2022/06/19 07:18:28;;;;;;;4.93;1.02;;;;;;;20.31;45.46;101142.94;4918072;28;124383;-64
2022/06/19 07:20:55;;;;;;;5.75;1.58;;;;;;;20.29;45.41;101139.50;4906039;28;123960;-65
2022/06/19 07:23:22;;;;;;;3.20;0.80;;;;;;;20.24;45.40;101141.72;4919185;28;113996;-64
2022/06/19 07:25:49;;;;;;;3.22;1.08;;;;;;;20.22;45.72;101138.31;4903314;28;113806;-64
2022/06/19 07:28:17;;;;;;;5.72;1.10;;;;;;;20.21;45.80;101147.34;4911548;28;123174;-64
2022/06/19 07:30:45;;;;;;;4.10;1.05;;;;;;;20.21;46.06;101168.84;4907246;28;123946;-64
2022/06/19 07:33:12;;;;;;;7.28;1.30;;;;;;;20.23;46.35;101166.91;4912372;28;113386;-64
2022/06/19 07:35:40;;;;;;;8.10;1.35;;;;;;;20.27;46.35;101184.50;4901533;28;114350;-64
2022/06/19 07:38:07;;;;;;;5.63;1.00;;;;;;;20.30;46.38;101186.09;4909595;28;123967;-64
2022/06/19 07:40:35;;;;;;;4.70;1.17;;;;;;;20.27;45.96;101179.13;4907520;28;123760;-64
2022/06/19 07:43:06;;;;;;;4.50;1.20;;;;;;;20.21;45.90;101180.47;4911416;28;114454;-64
2022/06/19 07:45:33;;;;;;;5.10;1.20;;;;;;;20.19;46.06;101185.13;4911022;28;115201;-65
2022/06/19 07:50:47;;;;;;;4.53;0.90;;;;;;;20.03;45.94;101145.16;4911256;28;124488;-64
2022/06/19 07:53:16;;;;;;;3.47;1.25;;;;;;;19.94;45.70;101129.75;4921805;28;114229;-61
2022/06/19 07:55:43;;;;;;;6.28;1.55;;;;;;;19.84;45.91;101107.28;4905344;28;113831;-61
2022/06/19 07:58:10;;;;;;;11.23;1.40;;;;;;;19.72;45.88;101106.44;4912571;28;124022;-61
2022/06/19 08:00:38;;;;;;;4.38;1.20;;;;;;;19.60;46.25;101121.66;4913345;28;124154;-61
2022/06/19 08:03:05;;;;;;;8.57;1.40;;;;;;;19.49;46.77;101086.72;4911107;28;114482;-61
2022/06/19 08:05:35;;;;;;;9.15;1.45;;;;;;;19.39;47.16;101091.13;4908573;28;113864;-62
2022/06/19 08:08:07;;;;;;;11.23;1.65;;;;;;;19.31;47.67;101093.53;4890438;28;124034;-61
2022/06/19 08:10:38;;;;;;;4.97;1.65;;;;;;;19.21;47.98;101121.13;4906093;28;122856;-61
2022/06/19 08:13:13;;;;;;;6.93;1.50;;;;;;;19.14;48.07;101114.50;4912083;28;113135;-61
2022/06/19 08:15:41;;;;;;;6.45;1.92;;;;;;;19.09;48.48;101089.84;4909836;28;114751;-62
2022/06/19 08:18:09;;;;;;;6.47;1.60;;;;;;;19.06;48.85;101111.53;4899131;28;124081;-61
2022/06/19 08:20:36;;;;;;;8.40;2.00;;;;;;;19.00;49.09;101128.13;4900148;28;124575;-61
2022/06/19 08:23:05;;;;;;;7.03;1.48;;;;;;;18.92;49.57;101104.56;4910853;28;116895;-61
2022/06/19 08:25:32;;;;;;;6.60;1.45;;;;;;;18.84;49.58;101099.78;4907803;28;113644;-62
2022/06/19 08:28:00;;;;;;;10.98;1.88;;;;;;;18.77;49.92;101128.00;4906623;28;123831;-61
2022/06/19 08:30:33;;;;;;;9.73;1.65;;;;;;;18.75;50.37;101135.31;4898977;28;123361;-62
2022/06/19 08:33:04;;;;;;;10.50;1.80;;;;;;;18.74;50.26;101144.34;4899958;28;115126;-61
2022/06/19 08:35:34;;;;;;;5.85;1.50;;;;;;;18.73;50.62;101153.34;4899719;28;114925;-62
2022/06/19 08:38:06;;;;;;;8.00;1.40;;;;;;;18.70;51.04;101142.84;4906494;28;124957;-62
2022/06/19 08:40:53;;;;;;;6.13;1.70;;;;;;;18.68;51.01;101123.31;4911130;28;122636;-62
2022/06/19 08:43:41;;;;;;;6.53;1.52;;;;;;;18.69;51.21;101055.28;4910409;28;114601;-61
2022/06/19 08:46:19;;;;;;;6.85;1.80;;;;;;;18.66;51.56;101007.22;4910412;28;113763;-62
2022/06/19 08:49:02;;;;;;;7.28;1.60;;;;;;;18.62;52.10;101000.38;4909823;28;123780;-62
2022/06/19 08:51:35;;;;;;;9.27;1.52;;;;;;;18.59;52.49;101032.78;4897306;28;123784;-62
2022/06/19 08:54:05;;;;;;;6.72;1.63;;;;;;;18.62;52.71;101032.56;4909829;28;114645;-62
2022/06/19 08:56:41;;;;;;;10.57;1.63;;;;;;;18.63;52.85;101035.16;4906068;28;114213;-61
2022/06/19 08:59:43;;;;;;;9.32;1.67;;;;;;;18.66;52.81;101058.19;4898597;28;124838;-62
2022/06/19 09:02:38;;;;;;;10.18;2.08;;;;;;;18.67;53.00;101051.88;4889311;28;123798;-62
2022/06/19 09:05:36;;;;;;;10.33;1.87;;;;;;;18.66;52.89;101023.31;4895710;28;114670;-62
2022/06/19 09:08:22;;;;;;;7.68;1.80;;;;;;;18.64;53.11;101001.13;4906263;28;114219;-63
2022/06/19 09:10:55;;;;;;;;;;;;;;;18.58;52.11;101015.84;4894454;28;124356;-62
2022/06/19 09:13:43;;;;;;;6.65;1.70;;;;;;;18.61;52.57;101026.38;4902193;28;124646;-62
2022/06/19 09:16:19;;;;;;;10.85;2.00;;;;;;;18.64;53.03;101009.16;4896795;28;114038;-61
2022/06/19 09:18:52;;;;;;;7.07;1.90;;;;;;;18.67;53.39;101017.00;4896712;28;114223;-62
2022/06/19 09:21:51;;;;;;;8.55;1.80;;;;;;;18.70;53.29;101038.19;4895291;28;124137;-62
2022/06/19 09:24:36;;;;;;;7.13;1.52;;;;;;;18.72;53.43;101065.78;4897961;28;123940;-62
2022/06/19 09:27:03;;;;;;;9.02;2.00;;;;;;;18.77;53.31;101095.81;4893642;28;115050;-62
2022/06/19 09:29:45;;;;;;;4.50;1.70;;;;;;;18.78;52.80;101124.38;4900821;28;114918;-62
2022/06/19 09:32:25;;;;;;;5.63;1.83;;;;;;;18.76;52.60;101137.03;4899752;28;124035;-62
2022/06/19 09:34:57;;;;;;;9.30;1.85;;;;;;;18.78;52.81;101140.47;4906723;28;122864;-62
2022/06/19 09:37:34;;;;;;;5.13;1.60;;;;;;;18.86;53.41;101143.44;4908563;28;97108;-62
2022/06/19 09:40:13;;;;;;;9.50;1.73;;;;;;;18.97;53.04;101139.97;4909117;28;113770;-62
2022/06/19 09:42:51;;;;;;;7.53;1.70;;;;;;;19.06;53.06;101133.03;4911426;28;124394;-62
2022/06/19 09:45:44;;;;;;;9.48;1.98;;;;;;;19.20;52.99;101135.50;4910335;28;123798;-62
2022/06/19 09:48:26;;;;;;;8.27;1.75;;;;;;;19.33;52.98;101124.69;4910655;28;115159;-62
2022/06/19 09:51:09;;;;;;;6.18;1.65;;;;;;;19.42;52.72;101117.72;4908863;28;114099;-62
2022/06/19 09:53:45;;;;;;;5.38;1.65;;;;;;;19.48;52.55;101095.78;4897695;28;124494;-62
2022/06/19 09:56:39;;;;;;;6.60;1.33;;;;;;;19.61;52.75;101064.28;4923815;28;123737;-62
2022/06/19 09:59:15;;;;;;;6.85;2.00;;;;;;;19.75;52.76;101048.91;4900672;28;114270;-61
2022/06/19 10:01:46;;;;;;;7.65;1.92;;;;;;;19.96;52.60;101046.31;4909239;28;114336;-62
2022/06/19 10:04:21;;;;;;;6.78;1.83;;;;;;;20.14;52.87;101043.94;4902504;28;123945;-61
2022/06/19 10:06:56;;;;;;;6.68;1.60;;;;;;;20.33;52.71;101045.97;4907760;28;123949;-61
2022/06/19 10:09:27;;;;;;;6.85;1.83;;;;;;;20.49;52.58;101029.38;4911436;28;114133;-61
2022/06/19 10:11:59;;;;;;;7.68;2.03;;;;;;;20.61;52.01;101039.16;4913642;28;113465;-61
2022/06/19 10:14:32;;;;;;;5.68;1.92;;;;;;;20.68;51.52;101037.66;4911995;28;124066;-61
2022/06/19 10:17:04;;;;;;;5.03;1.92;;;;;;;20.71;51.52;101015.84;4913307;28;124005;-61
2022/06/19 10:19:52;;;;;;;10.80;1.80;;;;;;;20.75;51.36;100997.59;4912799;28;115727;-61
2022/06/19 10:22:46;;;;;;;9.20;2.33;;;;;;;20.79;50.81;100991.84;4912403;28;115296;-61
2022/06/19 10:25:39;;;;;;;5.82;1.95;;;;;;;20.79;50.31;101002.63;4906868;28;124927;-61
2022/06/19 10:28:51;;;;;;;6.18;1.95;;;;;;;20.83;51.19;100999.63;4910231;28;123863;-61
2022/06/19 10:31:45;;;;;;;9.52;1.80;;;;;;;21.01;51.58;101003.44;4900298;28;114376;-60
2022/06/19 10:34:21;;;;;;;6.22;1.85;;;;;;;21.12;51.11;101003.34;4911544;28;114245;-61
2022/06/19 10:37:02;;;;;;;7.30;1.90;;;;;;;21.20;50.82;100987.38;4913087;28;124549;-60
2022/06/19 10:39:46;;;;;;;5.78;1.90;;;;;;;21.26;50.53;100998.59;4908796;28;122810;-61
2022/06/19 10:42:36;;;;;;;7.22;2.00;;;;;;;21.31;50.32;101004.44;4907246;28;114765;-61
2022/06/19 10:45:27;;;;;;;7.40;1.90;;;;;;;21.39;50.70;101010.00;4906568;28;114458;-61
2022/06/19 10:48:27;;;;;;;6.25;1.77;;;;;;;21.47;49.90;101036.31;4909224;28;124105;-61
2022/06/19 10:51:47;;;;;;;6.53;1.45;;;;;;;21.47;49.18;101044.38;4913110;28;124559;-62
2022/06/19 10:54:29;;;;;;;5.13;1.45;;;;;;;21.45;48.88;101047.22;4889875;28;114430;-62
2022/06/19 10:57:09;;;;;;;7.03;1.60;;;;;;;21.48;48.77;101036.16;4913860;28;113655;-61
2022/06/19 10:59:37;;;;;;;5.93;1.55;;;;;;;21.52;48.46;101024.13;4912848;28;124308;-62
2022/06/19 11:05:31;;;;;;;5.57;1.40;;;;;;;21.65;48.42;101012.28;4909138;28;114453;-61
2022/06/19 11:07:58;;;;;;;5.35;1.42;;;;;;;21.72;48.23;101016.13;4903883;28;113778;-61
2022/06/19 11:10:38;;;;;;;5.75;1.35;;;;;;;21.80;47.83;101024.38;4913607;28;124608;-61
2022/06/19 11:13:07;;;;;;;6.20;1.33;;;;;;;21.88;47.77;101048.78;4911483;28;123715;-61
2022/06/19 11:15:41;;;;;;;5.38;1.50;;;;;;;21.99;46.84;101055.91;4908599;28;115519;-61
2022/06/19 11:18:16;;;;;;;3.90;1.20;;;;;;;22.06;47.23;101072.41;4909496;28;114969;-61
2022/06/19 11:21:02;;;;;;;4.35;1.40;;;;;;;22.17;47.20;101075.00;4913297;28;124253;-61
2022/06/19 11:23:35;;;;;;;5.88;1.60;;;;;;;22.28;46.94;101064.13;4910892;28;124267;-61
2022/06/19 11:26:41;;;;;;;7.03;1.70;;;;;;;22.39;46.56;101059.56;4910730;28;113930;-62
2022/06/19 11:29:14;;;;;;;4.63;1.40;;;;;;;22.49;46.32;101069.38;4893346;28;113956;-64
2022/06/19 11:32:04;;;;;;;4.47;1.20;;;;;;;22.60;46.50;101081.88;4912460;28;124278;-64
2022/06/19 11:34:44;;;;;;;8.10;1.42;;;;;;;22.71;46.24;101089.00;4910303;28;124686;-65
2022/06/19 11:37:21;;;;;;;3.45;1.20;;;;;;;22.81;46.09;101083.56;4910989;28;114707;-64
2022/06/19 11:39:54;;;;;;;5.43;1.30;;;;;;;22.87;45.55;101077.63;4911665;28;114065;-64
2022/06/19 11:42:45;;;;;;;4.38;1.17;;;;;;;22.96;45.67;101087.53;4909966;28;124127;-64
2022/06/19 11:45:12;;;;;;;2.53;1.10;;;;;;;23.07;44.69;101097.38;4903005;28;123901;-64
2022/06/19 11:47:43;;;;;;;4.57;1.17;;;;;;;23.13;44.69;101094.09;4909890;28;114503;-65